Overton, Nebraska
Current Conditions -  °F | °C
As of 10:35 AM on Wednesday 22 Oct 2014 (Local Time) from KLXN Reporting Station
Broken Clouds Broken Clouds  
Wind Chill: 61°   Ceiling: 9000
Heat Index: 61°   Visibility: 10mi
Dew Point: 53°   Wind: 7mph
Humidity: 75%   Direction: 200°SSW
Pressure: 30.01"   Gusts: NA
Location:  40.74°N, 99.54°W
Report Text: KLXN 221535Z AUTO 20006KT 10SM BKN090 16/12 A3001 RMK AO2 T01610116
Loading
Personal Weather Stations






























Interactive Weather Map
Tropical Storm Tracking
New forecast layout! Learn more

10-Day Weather Forecast

Advertisements
Track Severe Weather on mobile